Time;durP1;ratioP1;P1;durP2;ratioP2;P2;SDS_P1;SDS_P2;PMS_P1;PMS_P2;Temp;Humidity;BMP_temperature;BMP_pressure;BME280_temperature;BME280_humidity;BME280_pressure;Samples;Min_cycle;Max_cycle;Signal;HPM_P1;HPM_P2
2022/10/22 00:00:42;;;;;;;3.97;1.70;;;15.10;98.00;;;;;;5052212;28;20452;-70
2022/10/22 00:03:13;;;;;;;2.67;1.60;;;15.00;98.00;;;;;;5051968;28;20818;-70
2022/10/22 00:05:40;;;;;;;2.70;1.83;;;15.10;98.00;;;;;;5052005;28;21077;-70
2022/10/22 00:08:07;;;;;;;2.50;1.70;;;15.30;98.00;;;;;;5051985;28;20515;-70
2022/10/22 00:10:37;;;;;;;1.60;1.50;;;15.20;98.00;;;;;;5052173;28;20535;-70
2022/10/22 00:13:05;;;;;;;2.00;1.50;;;15.20;98.00;;;;;;5034552;28;20457;-70
2022/10/22 00:15:33;;;;;;;2.57;1.50;;;15.20;98.00;;;;;;5051872;28;20469;-69
2022/10/22 00:18:00;;;;;;;1.50;1.33;;;15.10;98.00;;;;;;5051810;28;20465;-70
2022/10/22 00:20:27;;;;;;;2.90;1.87;;;15.20;98.00;;;;;;5051734;28;20460;-70
2022/10/22 00:22:54;;;;;;;1.30;1.10;;;15.10;98.00;;;;;;5051700;28;20465;-70
2022/10/22 00:25:21;;;;;;;1.50;1.23;;;15.10;98.00;;;;;;5051603;28;20476;-69
2022/10/22 00:27:49;;;;;;;2.13;1.17;;;15.10;98.00;;;;;;5051535;28;20454;-70
2022/10/22 00:30:16;;;;;;;5.73;1.27;;;15.10;98.00;;;;;;5033701;28;20464;-69
2022/10/22 00:32:43;;;;;;;2.37;1.60;;;15.00;98.00;;;;;;5051401;28;20457;-70
2022/10/22 00:35:10;;;;;;;1.50;1.43;;;15.10;98.00;;;;;;5051547;28;20457;-70
2022/10/22 00:37:37;;;;;;;2.57;1.57;;;15.10;98.00;;;;;;5051370;28;20973;-70
2022/10/22 00:40:05;;;;;;;1.57;1.57;;;15.00;98.00;;;;;;5051199;28;20465;-70
2022/10/22 00:42:32;;;;;;;1.90;1.30;;;15.00;98.00;;;;;;5051301;28;20998;-69
2022/10/22 00:45:22;;;;;;;1.80;1.60;;;15.00;98.00;;;;;;5051290;28;20464;-70
2022/10/22 00:47:53;;;;;;;2.30;1.63;;;15.10;98.00;;;;;;5051323;28;20456;-70
2022/10/22 00:50:25;;;;;;;2.47;1.60;;;15.00;98.00;;;;;;5051326;28;20456;-70
2022/10/22 00:52:52;;;;;;;2.03;1.50;;;15.00;98.00;;;;;;5051023;28;20472;-70
2022/10/22 00:55:20;;;;;;;1.60;1.47;;;15.00;98.00;;;;;;5051291;28;20517;-69
2022/10/22 00:57:48;;;;;;;4.20;1.90;;;15.00;98.00;;;;;;5051215;28;20519;-70
2022/10/22 01:00:17;;;;;;;1.83;1.43;;;15.10;98.00;;;;;;5051150;28;20974;-69
2022/10/22 01:02:45;;;;;;;3.10;1.83;;;15.10;98.00;;;;;;5051095;28;20464;-69
2022/10/22 01:05:15;;;;;;;2.20;1.50;;;15.10;98.00;;;;;;5051174;28;20480;-70
2022/10/22 01:07:44;;;;;;;2.53;1.50;;;15.00;98.00;;;;;;5051128;28;20544;-70
2022/10/22 01:10:20;;;;;;;1.50;1.30;;;15.00;98.00;;;;;;5051074;28;20464;-70
2022/10/22 01:12:54;;;;;;;2.60;1.70;;;15.00;98.00;;;;;;5051225;28;20463;-70
2022/10/22 01:15:31;;;;;;;4.10;1.60;;;15.00;98.00;;;;;;5051191;28;20495;-69
2022/10/22 01:18:02;;;;;;;3.10;1.60;;;14.90;98.00;;;;;;5051071;28;20464;-70
2022/10/22 01:20:54;;;;;;;1.50;1.30;;;14.90;98.00;;;;;;5033495;28;20453;-69
2022/10/22 01:23:43;;;;;;;2.20;1.40;;;14.80;98.00;;;;;;5033252;28;20465;-70
2022/10/22 01:26:20;;;;;;;1.37;1.23;;;14.90;98.00;;;;;;5047658;28;20545;-69
2022/10/22 01:28:58;;;;;;;1.57;1.33;;;14.90;98.00;;;;;;5050920;28;20877;-69
2022/10/22 01:31:29;;;;;;;1.40;1.30;;;14.80;98.00;;;;;;5033102;28;20468;-70
2022/10/22 01:33:59;;;;;;;1.47;1.30;;;14.70;98.00;;;;;;5033668;28;20479;-70
2022/10/22 01:36:28;;;;;;;1.87;1.40;;;14.80;98.00;;;;;;5050770;28;20666;-70
2022/10/22 01:38:56;;;;;;;1.50;1.20;;;14.80;98.00;;;;;;5050787;28;20951;-70
2022/10/22 01:41:24;;;;;;;1.50;1.27;;;14.70;98.00;;;;;;5050095;28;20459;-69
2022/10/22 01:43:52;;;;;;;1.23;1.13;;;14.80;98.00;;;;;;5050667;28;20467;-69
2022/10/22 01:49:02;;;;;;;1.63;1.40;;;14.80;98.00;;;;;;5029332;28;20482;-70
2022/10/22 01:51:47;;;;;;;1.20;1.00;;;14.70;98.00;;;;;;5030747;28;20461;-69
2022/10/22 01:54:25;;;;;;;1.47;1.30;;;14.60;98.00;;;;;;5034503;28;20822;-69
2022/10/22 01:57:05;;;;;;;1.20;1.07;;;14.60;98.00;;;;;;5034651;28;20917;-69
2022/10/22 01:59:48;;;;;;;1.40;1.20;;;14.50;98.00;;;;;;5034386;28;20471;-69
2022/10/22 02:02:28;;;;;;;2.13;1.20;;;14.60;98.00;;;;;;5034459;28;20456;-69
2022/10/22 02:05:00;;;;;;;1.30;1.10;;;14.50;98.00;;;;;;5034354;28;20460;-69
2022/10/22 02:07:33;;;;;;;1.70;1.10;;;14.60;98.00;;;;;;5034285;28;20486;-69
2022/10/22 02:10:02;;;;;;;1.40;1.10;;;14.50;98.00;;;;;;5016660;28;20462;-69
2022/10/22 02:12:32;;;;;;;3.53;1.20;;;14.40;98.00;;;;;;5034383;28;20454;-69
2022/10/22 02:15:02;;;;;;;1.20;1.20;;;14.50;98.00;;;;;;5034383;28;20458;-69
2022/10/22 02:17:33;;;;;;;1.20;1.10;;;14.50;98.00;;;;;;5034456;28;20453;-70
2022/10/22 02:20:05;;;;;;;1.30;1.30;;;14.50;98.00;;;;;;5016450;28;20953;-69
2022/10/22 02:22:35;;;;;;;1.50;1.30;;;14.40;98.00;;;;;;5017228;28;20878;-70
2022/10/22 02:25:03;;;;;;;1.70;1.20;;;14.40;98.00;;;;;;5033805;28;20995;-69
2022/10/22 02:27:33;;;;;;;2.63;1.20;;;14.20;98.00;;;;;;5016348;28;20487;-69
2022/10/22 02:30:06;;;;;;;1.13;1.00;;;14.40;98.00;;;;;;5034121;28;20455;-69
2022/10/22 02:32:39;;;;;;;1.50;1.10;;;14.60;98.00;;;;;;5033905;28;20449;-69
2022/10/22 02:35:08;;;;;;;6.50;1.30;;;14.70;98.00;;;;;;5016653;28;21025;-69
2022/10/22 02:37:36;;;;;;;1.20;1.10;;;14.60;98.00;;;;;;5033634;28;20966;-69
2022/10/22 02:40:04;;;;;;;1.30;1.27;;;14.70;98.00;;;;;;5033715;28;20456;-70
2022/10/22 02:42:33;;;;;;;1.30;1.10;;;14.70;98.00;;;;;;5033648;28;20463;-69
2022/10/22 02:45:05;;;;;;;1.80;1.20;;;14.70;98.00;;;;;;5033571;28;20965;-69
2022/10/22 02:47:32;;;;;;;1.40;1.10;;;14.60;98.00;;;;;;5031581;28;20503;-69
2022/10/22 02:49:59;;;;;;;1.37;1.20;;;14.40;98.00;;;;;;5033333;28;20462;-69
2022/10/22 02:52:26;;;;;;;1.40;1.00;;;14.30;98.00;;;;;;5033315;28;20468;-69
2022/10/22 02:54:53;;;;;;;2.23;1.10;;;14.30;98.00;;;;;;5033453;28;20977;-69
2022/10/22 02:57:20;;;;;;;1.87;1.20;;;14.20;98.00;;;;;;5033334;28;20500;-69
2022/10/22 02:59:48;;;;;;;1.27;1.17;;;14.10;98.00;;;;;;5015876;28;20868;-69
2022/10/22 03:02:17;;;;;;;1.20;1.20;;;14.00;98.00;;;;;;5033322;28;20467;-69
2022/10/22 03:04:44;;;;;;;1.10;1.00;;;14.10;98.00;;;;;;5015372;28;20456;-69
2022/10/22 03:07:12;;;;;;;1.10;0.90;;;14.10;98.00;;;;;;5033223;28;20574;-69
2022/10/22 03:09:39;;;;;;;1.20;1.10;;;14.10;98.00;;;;;;5015565;28;20470;-69
2022/10/22 03:12:07;;;;;;;1.30;1.10;;;14.10;98.00;;;;;;5033210;28;20455;-69
2022/10/22 03:14:37;;;;;;;1.20;1.00;;;14.20;98.00;;;;;;5033302;28;20573;-70
2022/10/22 03:17:04;;;;;;;1.20;1.20;;;14.20;98.00;;;;;;5033159;28;20471;-69
2022/10/22 03:19:32;;;;;;;1.70;1.20;;;14.20;98.00;;;;;;5033315;28;20475;-69
2022/10/22 03:22:02;;;;;;;1.20;1.10;;;14.30;98.00;;;;;;5033124;28;20464;-69
2022/10/22 03:24:34;;;;;;;1.77;1.00;;;14.30;98.00;;;;;;5033142;28;20651;-69
2022/10/22 03:27:01;;;;;;;1.20;1.00;;;14.40;98.00;;;;;;5033080;28;20567;-69
2022/10/22 03:29:31;;;;;;;1.20;1.10;;;14.40;98.00;;;;;;5032709;28;20466;-69
2022/10/22 03:31:58;;;;;;;1.47;1.03;;;14.40;98.00;;;;;;5032858;28;20471;-69
2022/10/22 03:34:25;;;;;;;1.43;1.10;;;14.30;98.00;;;;;;5032648;28;20468;-69
2022/10/22 03:36:58;;;;;;;1.30;1.20;;;14.30;98.00;;;;;;5032796;28;20546;-70
2022/10/22 03:39:26;;;;;;;1.20;1.10;;;14.30;98.00;;;;;;5032444;28;20554;-69
2022/10/22 03:41:53;;;;;;;2.30;1.20;;;14.30;98.00;;;;;;5032561;28;20461;-69
2022/10/22 03:44:21;;;;;;;1.87;1.27;;;14.40;98.00;;;;;;5032393;28;20975;-69
2022/10/22 03:46:57;;;;;;;1.13;1.03;;;14.50;98.00;;;;;;5014944;28;20500;-69
2022/10/22 03:49:25;;;;;;;1.67;1.27;;;14.40;98.00;;;;;;5031311;28;20471;-69
2022/10/22 03:51:52;;;;;;;1.50;1.10;;;14.30;98.00;;;;;;5032395;28;20465;-69
2022/10/22 03:54:20;;;;;;;1.20;1.10;;;14.10;98.00;;;;;;5032248;28;20479;-69
2022/10/22 03:56:49;;;;;;;1.70;1.03;;;14.10;98.00;;;;;;5014559;28;20453;-69
2022/10/22 03:59:16;;;;;;;1.20;1.10;;;14.10;98.00;;;;;;5032106;28;20476;-69
2022/10/22 04:01:43;;;;;;;1.43;1.10;;;14.10;98.00;;;;;;5032304;28;20472;-69
2022/10/22 04:04:11;;;;;;;1.23;1.17;;;14.00;98.00;;;;;;5032053;28;20463;-69
2022/10/22 04:06:38;;;;;;;1.87;1.10;;;14.30;98.00;;;;;;5014600;28;20460;-69
2022/10/22 04:09:05;;;;;;;1.30;1.20;;;14.30;98.00;;;;;;5031971;28;20483;-69
2022/10/22 04:11:34;;;;;;;1.50;1.20;;;14.30;98.00;;;;;;5032047;28;20458;-69
2022/10/22 04:14:01;;;;;;;1.40;1.10;;;14.30;98.00;;;;;;5032162;28;20473;-69
2022/10/22 04:16:30;;;;;;;1.20;1.10;;;14.20;98.00;;;;;;5031289;28;20460;-69
2022/10/22 04:18:58;;;;;;;1.30;1.07;;;14.10;98.00;;;;;;5014738;28;20464;-69
2022/10/22 04:21:31;;;;;;;1.97;1.50;;;14.10;98.00;;;;;;5032149;28;20524;-69
2022/10/22 04:23:59;;;;;;;1.20;1.10;;;14.00;98.00;;;;;;5031928;28;20469;-70
2022/10/22 04:26:28;;;;;;;1.20;1.10;;;14.00;98.00;;;;;;5031809;28;20886;-69
2022/10/22 04:28:57;;;;;;;1.50;1.10;;;14.00;98.00;;;;;;5031757;28;20453;-69
2022/10/22 04:31:26;;;;;;;1.10;1.07;;;13.90;98.00;;;;;;5031542;28;20466;-69
2022/10/22 04:33:54;;;;;;;1.30;1.10;;;13.80;98.00;;;;;;5014345;28;20551;-70
2022/10/22 04:36:22;;;;;;;1.10;1.00;;;13.70;98.00;;;;;;5031584;28;20548;-69
2022/10/22 04:38:54;;;;;;;1.20;1.07;;;13.80;98.00;;;;;;5031409;28;20467;-69
2022/10/22 04:41:23;;;;;;;1.10;1.07;;;13.70;98.00;;;;;;5014264;28;20467;-69
2022/10/22 04:43:50;;;;;;;1.20;1.00;;;13.70;98.00;;;;;;5031490;28;20472;-70
2022/10/22 04:46:19;;;;;;;1.40;1.20;;;13.70;98.00;;;;;;5031602;28;20508;-69
2022/10/22 04:48:47;;;;;;;2.10;1.30;;;13.70;98.00;;;;;;5031214;28;20492;-69
2022/10/22 04:51:15;;;;;;;1.20;1.10;;;13.60;98.00;;;;;;5031349;28;20517;-69
2022/10/22 04:53:43;;;;;;;1.47;1.07;;;13.50;98.00;;;;;;5031334;28;20465;-69
2022/10/22 04:56:15;;;;;;;1.10;0.97;;;13.50;98.00;;;;;;5031268;28;20454;-69
2022/10/22 04:58:43;;;;;;;1.13;1.00;;;13.40;98.00;;;;;;5031068;28;20457;-69
2022/10/22 05:01:12;;;;;;;1.10;1.00;;;13.40;98.00;;;;;;5031192;28;20464;-69
2022/10/22 05:03:41;;;;;;;3.30;1.30;;;13.30;98.00;;;;;;4997325;28;20463;-69
2022/10/22 05:06:09;;;;;;;1.47;1.10;;;13.10;98.00;;;;;;5031156;28;20531;-69
2022/10/22 05:08:36;;;;;;;1.13;1.13;;;13.10;98.00;;;;;;5013471;28;20486;-70
2022/10/22 05:11:11;;;;;;;1.30;1.00;;;13.00;98.00;;;;;;5013812;28;20811;-69
2022/10/22 05:13:38;;;;;;;1.10;1.00;;;13.00;98.00;;;;;;5031232;28;20464;-69
2022/10/22 05:16:06;;;;;;;1.10;1.10;;;13.10;98.00;;;;;;5031159;28;20462;-69
2022/10/22 05:18:35;;;;;;;1.40;1.20;;;13.20;98.00;;;;;;5031653;28;20469;-69
2022/10/22 05:21:04;;;;;;;1.67;1.17;;;13.20;98.00;;;;;;5030791;28;20544;-69
2022/10/22 05:23:31;;;;;;;1.20;1.03;;;13.20;98.00;;;;;;5031212;28;20456;-69
2022/10/22 05:26:02;;;;;;;1.50;1.27;;;13.20;98.00;;;;;;5014169;28;20460;-69
2022/10/22 05:28:30;;;;;;;1.30;1.20;;;13.20;98.00;;;;;;5035287;28;21104;-69
2022/10/22 05:30:59;;;;;;;1.30;1.13;;;13.30;98.00;;;;;;5035150;28;20461;-69
2022/10/22 05:33:27;;;;;;;1.30;1.20;;;13.40;98.00;;;;;;5034920;28;20473;-69
2022/10/22 05:35:54;;;;;;;1.13;1.00;;;13.30;98.00;;;;;;5035185;28;20460;-69
2022/10/22 05:38:24;;;;;;;2.80;1.20;;;13.30;98.00;;;;;;5034748;28;20460;-69
2022/10/22 05:41:00;;;;;;;1.30;1.20;;;13.20;98.00;;;;;;5035029;28;20473;-69
2022/10/22 05:43:27;;;;;;;1.20;1.10;;;13.20;98.00;;;;;;5034674;28;20549;-69
2022/10/22 05:45:56;;;;;;;1.30;1.07;;;13.20;98.00;;;;;;5034879;28;20466;-70
2022/10/22 05:48:23;;;;;;;1.10;1.10;;;13.20;98.00;;;;;;5034434;28;21038;-69
2022/10/22 05:50:50;;;;;;;1.40;1.27;;;13.20;98.00;;;;;;5034782;28;20464;-69
2022/10/22 05:53:18;;;;;;;1.20;1.00;;;13.20;98.00;;;;;;5034472;28;20452;-69
2022/10/22 05:55:46;;;;;;;1.10;1.00;;;13.20;98.00;;;;;;5034560;28;20546;-70
2022/10/22 05:58:14;;;;;;;1.10;1.00;;;13.20;98.00;;;;;;5034438;28;20460;-69
2022/10/22 06:00:42;;;;;;;1.20;1.17;;;13.30;98.00;;;;;;5034436;28;20465;-70
2022/10/22 06:03:09;;;;;;;1.30;1.20;;;13.40;98.00;;;;;;5034280;28;20450;-69
2022/10/22 06:05:37;;;;;;;1.70;1.30;;;13.40;98.00;;;;;;5016531;28;20871;-70
2022/10/22 06:08:04;;;;;;;1.20;1.20;;;13.60;98.00;;;;;;5034287;28;20484;-69
2022/10/22 06:10:32;;;;;;;1.33;1.30;;;13.60;98.00;;;;;;5034417;28;20452;-69
2022/10/22 06:13:02;;;;;;;1.63;1.20;;;13.50;98.00;;;;;;5034356;28;20459;-69
2022/10/22 06:15:29;;;;;;;1.77;1.30;;;13.40;98.00;;;;;;5034158;28;20460;-69
2022/10/22 06:17:56;;;;;;;1.50;1.30;;;13.40;98.00;;;;;;5034050;28;20978;-69
2022/10/22 06:20:23;;;;;;;1.20;1.00;;;13.40;98.00;;;;;;5034007;28;20466;-69
2022/10/22 06:22:50;;;;;;;1.93;1.40;;;13.40;98.00;;;;;;5034177;28;20467;-70
2022/10/22 06:25:17;;;;;;;2.00;1.23;;;13.40;98.00;;;;;;5033934;28;20453;-70
2022/10/22 06:27:50;;;;;;;2.33;1.60;;;13.40;98.00;;;;;;5034118;28;20484;-70
2022/10/22 06:30:18;;;;;;;4.77;1.77;;;13.40;98.00;;;;;;5033984;28;20561;-69
2022/10/22 06:32:46;;;;;;;2.10;1.50;;;13.40;98.00;;;;;;5034026;28;20943;-68
2022/10/22 06:35:13;;;;;;;2.40;1.67;;;13.60;98.00;;;;;;5033792;28;20479;-67
2022/10/22 06:37:40;;;;;;;2.80;1.43;;;13.60;98.00;;;;;;5033347;28;20456;-67
2022/10/22 06:40:09;;;;;;;1.43;1.37;;;13.60;98.00;;;;;;4999594;28;20506;-67
2022/10/22 06:42:37;;;;;;;1.20;1.20;;;13.60;98.00;;;;;;5033825;28;20462;-68
2022/10/22 06:45:05;;;;;;;1.20;1.10;;;13.60;98.00;;;;;;5033539;28;20456;-67
2022/10/22 06:47:33;;;;;;;3.00;1.60;;;13.60;98.00;;;;;;5033414;28;20493;-66
2022/10/22 06:50:00;;;;;;;1.80;1.50;;;13.70;98.00;;;;;;5033390;28;20551;-67
2022/10/22 06:52:27;;;;;;;1.30;1.10;;;13.70;98.00;;;;;;5033404;28;20464;-67
2022/10/22 06:54:54;;;;;;;1.67;1.30;;;13.70;98.00;;;;;;5033651;28;20456;-67
2022/10/22 06:57:22;;;;;;;1.30;1.13;;;13.80;98.00;;;;;;5033548;28;20460;-68
2022/10/22 06:59:49;;;;;;;1.30;1.10;;;14.00;98.00;;;;;;5033364;28;20850;-67
2022/10/22 07:02:16;;;;;;;1.60;1.30;;;14.10;98.00;;;;;;5033147;28;20453;-67
2022/10/22 07:04:44;;;;;;;5.53;1.30;;;14.10;98.00;;;;;;5033089;28;20954;-66
2022/10/22 07:07:13;;;;;;;1.57;1.57;;;14.20;98.00;;;;;;5032911;28;20460;-66
2022/10/22 07:09:44;;;;;;;5.87;1.50;;;14.30;98.00;;;;;;5033058;28;20544;-67
2022/10/22 07:12:11;;;;;;;2.13;1.60;;;14.30;98.00;;;;;;5031663;28;20539;-68
2022/10/22 07:14:38;;;;;;;7.33;1.70;;;14.30;98.00;;;;;;5030020;28;20506;-67
2022/10/22 07:17:06;;;;;;;1.23;1.17;;;14.20;98.00;;;;;;5031428;28;20462;-68
2022/10/22 07:19:33;;;;;;;1.60;1.20;;;14.20;98.00;;;;;;5012842;28;20464;-68
2022/10/22 07:22:02;;;;;;;1.80;1.20;;;14.30;98.00;;;;;;5031599;28;20469;-66
2022/10/22 07:24:30;;;;;;;1.20;1.10;;;14.30;98.00;;;;;;5032697;28;20466;-66
2022/10/22 07:26:57;;;;;;;2.40;1.40;;;14.30;98.00;;;;;;5015524;28;20868;-66
2022/10/22 07:29:24;;;;;;;1.50;1.20;;;14.30;98.00;;;;;;5015265;28;20540;-67
2022/10/22 07:31:51;;;;;;;1.63;1.50;;;14.50;98.00;;;;;;5033220;28;20468;-67
2022/10/22 07:34:18;;;;;;;1.70;1.60;;;14.50;98.00;;;;;;5014993;28;20514;-66
2022/10/22 07:36:46;;;;;;;2.50;2.00;;;14.40;98.00;;;;;;5032695;28;20460;-68
2022/10/22 07:39:15;;;;;;;2.60;2.03;;;14.40;98.00;;;;;;5015044;28;20462;-67
2022/10/22 07:41:42;;;;;;;2.27;1.83;;;14.60;98.00;;;;;;5032709;28;20473;-62
2022/10/22 07:44:09;;;;;;;3.40;1.90;;;14.50;98.00;;;;;;5032544;28;20460;-70
2022/10/22 07:46:36;;;;;;;2.00;1.60;;;14.90;98.00;;;;;;5014690;28;20458;-69
2022/10/22 07:49:03;;;;;;;1.50;1.50;;;15.30;98.00;;;;;;5032149;28;20485;-69
2022/10/22 07:51:30;;;;;;;1.73;1.70;;;15.60;98.00;;;;;;5014079;28;20464;-67
2022/10/22 07:53:58;;;;;;;1.50;1.40;;;16.00;98.00;;;;;;5032300;28;20458;-67
2022/10/22 07:56:26;;;;;;;3.83;1.50;;;15.90;98.00;;;;;;5014722;28;20469;-67
2022/10/22 07:58:54;;;;;;;3.00;2.00;;;15.90;98.00;;;;;;5032235;28;20464;-66
2022/10/22 08:01:21;;;;;;;2.07;1.63;;;15.90;98.00;;;;;;5032463;28;20462;-66
2022/10/22 08:03:48;;;;;;;2.30;1.70;;;15.80;98.00;;;;;;5032103;28;20481;-67
2022/10/22 08:06:16;;;;;;;3.23;1.60;;;15.80;98.00;;;;;;5031918;28;21050;-66
2022/10/22 08:08:45;;;;;;;1.57;1.40;;;15.60;98.00;;;;;;5032063;28;20495;-66
2022/10/22 08:11:12;;;;;;;2.47;1.60;;;15.60;98.00;;;;;;5032027;28;20457;-67
2022/10/22 08:13:41;;;;;;;2.57;2.00;;;15.50;98.00;;;;;;5032081;28;20999;-66
2022/10/22 08:16:09;;;;;;;2.23;1.60;;;15.30;98.00;;;;;;5031873;28;20539;-67
2022/10/22 08:18:37;;;;;;;1.83;1.57;;;15.30;98.00;;;;;;5014452;28;20468;-67
2022/10/22 08:21:05;;;;;;;3.07;1.93;;;15.40;98.00;;;;;;5031778;28;20492;-66
2022/10/22 08:23:33;;;;;;;2.30;1.63;;;15.40;98.00;;;;;;5031889;28;20469;-67
2022/10/22 08:26:01;;;;;;;2.37;1.90;;;15.40;98.00;;;;;;5014367;28;20458;-67
2022/10/22 08:28:31;;;;;;;1.70;1.37;;;15.30;98.00;;;;;;5014292;28;20578;-66
2022/10/22 08:31:00;;;;;;;2.00;1.80;;;15.30;98.00;;;;;;5031744;28;20550;-66
2022/10/22 08:33:27;;;;;;;1.67;1.30;;;15.20;98.00;;;;;;5031690;28;20458;-67
2022/10/22 08:35:54;;;;;;;1.90;1.60;;;15.20;98.00;;;;;;5031865;28;20472;-66
2022/10/22 08:38:21;;;;;;;2.60;1.57;;;15.30;98.00;;;;;;5031618;28;20458;-66
2022/10/22 08:40:51;;;;;;;2.00;1.40;;;15.30;98.00;;;;;;5023471;28;20458;-67
2022/10/22 08:43:37;;;;;;;2.57;1.70;;;15.40;98.00;;;;;;5031354;28;20515;-67
2022/10/22 08:46:31;;;;;;;1.90;1.57;;;15.50;98.00;;;;;;5031472;28;20466;-67
2022/10/22 08:49:02;;;;;;;1.43;1.20;;;15.50;98.00;;;;;;5031233;28;20544;-66
2022/10/22 08:51:32;;;;;;;1.53;1.40;;;15.70;98.00;;;;;;5031546;28;20461;-67
2022/10/22 08:54:22;;;;;;;1.40;1.20;;;15.80;98.00;;;;;;5031515;28;20519;-67
2022/10/22 08:57:03;;;;;;;1.60;1.27;;;15.80;98.00;;;;;;5031457;28;20454;-66
2022/10/22 08:59:37;;;;;;;1.47;1.33;;;15.90;98.00;;;;;;5031170;28;20455;-67
2022/10/22 09:02:22;;;;;;;1.30;1.27;;;16.00;98.00;;;;;;5031146;28;20508;-67
2022/10/22 09:04:57;;;;;;;1.67;1.20;;;16.20;98.00;;;;;;5031218;28;20451;-67
2022/10/22 09:07:24;;;;;;;2.13;1.40;;;16.20;98.00;;;;;;5031343;28;20461;-67
2022/10/22 09:09:54;;;;;;;1.30;1.20;;;16.40;98.00;;;;;;5031033;28;20478;-67
2022/10/22 09:12:25;;;;;;;1.77;1.40;;;16.50;98.00;;;;;;5031242;28;20871;-67
2022/10/22 09:14:52;;;;;;;1.30;1.20;;;16.70;98.00;;;;;;5031066;28;20458;-67
2022/10/22 09:17:32;;;;;;;1.50;1.20;;;16.70;98.00;;;;;;5031157;28;20528;-67
2022/10/22 09:20:09;;;;;;;1.40;1.20;;;16.90;98.00;;;;;;5031145;28;20465;-67
2022/10/22 09:22:42;;;;;;;1.20;1.13;;;17.10;98.00;;;;;;5030978;28;20829;-67
2022/10/22 09:25:19;;;;;;;1.77;1.37;;;17.20;98.00;;;;;;5030520;28;20459;-67
2022/10/22 09:27:46;;;;;;;1.60;1.30;;;17.30;98.00;;;;;;5030406;28;20554;-66
2022/10/22 09:30:19;;;;;;;1.40;1.20;;;17.50;98.00;;;;;;5013257;28;20482;-67
2022/10/22 09:32:51;;;;;;;1.30;1.13;;;17.60;98.00;;;;;;5031027;28;20983;-67
2022/10/22 09:35:23;;;;;;;2.07;1.37;;;17.80;98.00;;;;;;5031100;28;20466;-67
2022/10/22 09:37:51;;;;;;;1.30;1.20;;;18.00;98.00;;;;;;5031240;28;20498;-67
2022/10/22 09:40:19;;;;;;;1.67;1.40;;;18.00;98.00;;;;;;5030926;28;20461;-68
2022/10/22 09:42:46;;;;;;;1.40;1.20;;;18.10;98.00;;;;;;5012500;28;20455;-67
2022/10/22 09:45:20;;;;;;;1.20;1.13;;;18.10;98.00;;;;;;5027494;28;20450;-67
2022/10/22 09:47:49;;;;;;;2.20;1.33;;;18.30;98.00;;;;;;5028120;28;20579;-67
2022/10/22 09:50:27;;;;;;;1.27;1.20;;;18.50;98.00;;;;;;5030305;28;20861;-68
2022/10/22 09:53:05;;;;;;;1.80;1.20;;;18.50;98.00;;;;;;5030719;28;21120;-67
2022/10/22 09:55:32;;;;;;;1.80;1.40;;;18.60;98.00;;;;;;5013918;28;20471;-67
2022/10/22 09:58:00;;;;;;;1.33;1.20;;;18.60;98.00;;;;;;5030618;28;20474;-68
2022/10/22 10:00:29;;;;;;;1.40;1.30;;;18.70;98.00;;;;;;5030656;28;20463;-67
2022/10/22 10:03:00;;;;;;;1.60;1.37;;;18.90;98.00;;;;;;5030689;28;20885;-67
2022/10/22 10:05:30;;;;;;;1.27;1.23;;;19.00;98.00;;;;;;5030675;28;20469;-67
2022/10/22 10:08:00;;;;;;;1.50;1.20;;;19.00;98.00;;;;;;5030939;28;20505;-67
2022/10/22 10:10:42;;;;;;;1.40;1.20;;;19.10;98.00;;;;;;5030556;28;20486;-68
2022/10/22 10:13:38;;;;;;;1.50;1.30;;;19.10;98.00;;;;;;5030307;28;20458;-68
2022/10/22 10:16:13;;;;;;;1.60;1.30;;;19.30;98.00;;;;;;5034199;28;20542;-68
2022/10/22 10:19:00;;;;;;;1.30;1.20;;;19.20;98.00;;;;;;5034247;28;20488;-68
2022/10/22 10:21:33;;;;;;;1.80;1.30;;;19.30;98.00;;;;;;5033965;28;20937;-67
2022/10/22 10:24:06;;;;;;;1.57;1.37;;;19.40;98.00;;;;;;5034188;28;20450;-68
2022/10/22 10:26:40;;;;;;;1.50;1.40;;;19.40;98.00;;;;;;5034201;28;20823;-68
2022/10/22 10:29:21;;;;;;;1.30;1.20;;;19.40;98.00;;;;;;5034006;28;20482;-68
2022/10/22 10:32:03;;;;;;;1.30;1.10;;;19.60;98.00;;;;;;5034056;28;20880;-66
2022/10/22 10:34:39;;;;;;;2.70;1.47;;;19.60;98.00;;;;;;5034030;28;20459;-67
2022/10/22 10:37:18;;;;;;;3.20;1.40;;;19.90;98.00;;;;;;5033958;28;20454;-67
2022/10/22 10:40:03;;;;;;;1.23;1.20;;;20.20;98.00;;;;;;5034006;28;20458;-68
2022/10/22 10:42:36;;;;;;;1.57;1.10;;;20.40;98.00;;;;;;5018083;28;20953;-67
2022/10/22 10:45:16;;;;;;;1.30;1.23;;;20.70;98.00;;;;;;5033885;28;20466;-67
2022/10/22 10:48:08;;;;;;;1.40;1.30;;;20.80;98.00;;;;;;5033655;28;20550;-67
2022/10/22 10:50:47;;;;;;;1.40;1.20;;;21.00;98.00;;;;;;5033449;28;20485;-67
2022/10/22 10:53:22;;;;;;;1.20;1.20;;;21.30;98.00;;;;;;5033458;28;20462;-67
2022/10/22 10:55:57;;;;;;;1.83;1.40;;;21.60;98.00;;;;;;5033605;28;20498;-68
2022/10/22 10:58:34;;;;;;;1.50;1.20;;;21.60;98.00;;;;;;5033416;28;20462;-67
2022/10/22 11:01:15;;;;;;;2.33;1.30;;;21.80;98.00;;;;;;5033225;28;20458;-67
2022/10/22 11:03:58;;;;;;;1.70;1.60;;;22.00;98.00;;;;;;5033528;28;20462;-67
2022/10/22 11:06:30;;;;;;;1.50;1.30;;;22.30;98.00;;;;;;5033359;28;20995;-67
2022/10/22 11:09:02;;;;;;;1.30;1.20;;;22.10;98.00;;;;;;5033452;28;21070;-67
2022/10/22 11:11:34;;;;;;;1.40;1.30;;;22.40;98.00;;;;;;5033083;28;20462;-67
2022/10/22 11:14:09;;;;;;;1.40;1.30;;;22.50;98.00;;;;;;5033157;28;20477;-69
2022/10/22 11:16:44;;;;;;;1.63;1.40;;;22.90;98.00;;;;;;5033209;28;20454;-68
2022/10/22 11:19:16;;;;;;;1.90;1.37;;;23.10;98.00;;;;;;5032832;28;20970;-67
2022/10/22 11:21:50;;;;;;;2.03;1.50;;;23.30;98.00;;;;;;5033080;28;20454;-68
2022/10/22 11:24:24;;;;;;;1.80;1.40;;;23.40;98.00;;;;;;5032903;28;20465;-64
2022/10/22 11:26:57;;;;;;;2.10;1.33;;;23.00;98.00;;;;;;5032940;28;20504;-66
2022/10/22 11:29:30;;;;;;;1.57;1.40;;;22.40;98.00;;;;;;5032753;28;20540;-67
2022/10/22 11:32:01;;;;;;;1.20;1.20;;;22.10;98.00;;;;;;5032892;28;20469;-67
2022/10/22 11:34:33;;;;;;;1.40;1.30;;;22.40;98.00;;;;;;5032699;28;20462;-67
2022/10/22 11:37:04;;;;;;;1.50;1.30;;;22.70;98.00;;;;;;5032845;28;21047;-66
2022/10/22 11:39:39;;;;;;;1.67;1.30;;;22.60;98.00;;;;;;5032757;28;21111;-67
2022/10/22 11:42:10;;;;;;;1.37;1.30;;;23.00;98.00;;;;;;5032833;28;20453;-64
2022/10/22 11:44:47;;;;;;;3.70;1.33;;;22.80;98.00;;;;;;5032834;28;20462;-63
2022/10/22 11:47:19;;;;;;;1.30;1.20;;;23.10;98.00;;;;;;5032525;28;20956;-64
2022/10/22 11:49:55;;;;;;;1.40;1.27;;;23.00;98.00;;;;;;5032570;28;20489;-64
2022/10/22 11:52:26;;;;;;;5.47;1.50;;;23.30;98.00;;;;;;5016300;28;20465;-64
2022/10/22 11:54:58;;;;;;;1.30;1.30;;;23.80;98.00;;;;;;5032516;28;20872;-64
2022/10/22 11:57:35;;;;;;;2.00;1.40;;;23.90;98.00;;;;;;5031919;28;20455;-64
2022/10/22 12:00:10;;;;;;;1.40;1.30;;;23.50;98.00;;;;;;5032348;28;20528;-65
2022/10/22 12:02:42;;;;;;;1.60;1.40;;;22.90;98.00;;;;;;5032348;28;20938;-66
2022/10/22 12:05:43;;;;;;;1.70;1.37;;;22.40;98.00;;;;;;5014680;28;20458;-65
2022/10/22 12:08:26;;;;;;;1.63;1.30;;;21.90;98.00;;;;;;5032208;28;20999;-66
2022/10/22 12:11:02;;;;;;;1.50;1.30;;;21.50;98.00;;;;;;5032096;28;20548;-67
2022/10/22 12:13:32;;;;;;;1.40;1.23;;;21.10;98.00;;;;;;5031988;28;20462;-66
2022/10/22 12:16:03;;;;;;;1.50;1.20;;;20.90;98.00;;;;;;5032424;28;20524;-64
2022/10/22 12:18:41;;;;;;;1.57;1.40;;;20.50;98.00;;;;;;5032183;28;20858;-66
2022/10/22 12:21:11;;;;;;;1.40;1.30;;;20.30;98.00;;;;;;5031809;28;20470;-66
2022/10/22 12:23:40;;;;;;;1.83;1.47;;;20.60;98.00;;;;;;5032054;28;20461;-65
2022/10/22 12:26:23;;;;;;;1.60;1.20;;;20.70;98.00;;;;;;5031874;28;20500;-67
2022/10/22 12:28:50;;;;;;;1.93;1.40;;;21.20;98.00;;;;;;5031832;28;20980;-66
2022/10/22 12:31:18;;;;;;;1.20;1.20;;;22.00;98.00;;;;;;5031675;28;20996;-67
2022/10/22 12:33:45;;;;;;;2.80;1.20;;;22.80;98.00;;;;;;5014139;28;20446;-65
2022/10/22 12:36:17;;;;;;;1.50;1.37;;;23.60;98.00;;;;;;5031224;28;20463;-68
2022/10/22 12:38:47;;;;;;;1.27;1.20;;;24.40;98.00;;;;;;5032087;28;20984;-71
2022/10/22 12:41:15;;;;;;;3.50;1.30;;;24.90;98.00;;;;;;5031420;28;20949;-66
2022/10/22 12:43:42;;;;;;;1.70;1.43;;;25.20;98.00;;;;;;5031694;28;20938;-67
2022/10/22 12:46:15;;;;;;;16.63;1.60;;;25.70;98.00;;;;;;5031759;28;20461;-66
2022/10/22 12:48:44;;;;;;;1.87;1.40;;;26.00;96.20;;;;;;5031823;28;20467;-66
2022/10/22 12:51:17;;;;;;;1.60;1.60;;;26.30;96.90;;;;;;5031363;28;20482;-65
2022/10/22 12:53:48;;;;;;;1.70;1.40;;;26.40;96.30;;;;;;5031446;28;20459;-66
2022/10/22 12:56:20;;;;;;;1.53;1.23;;;26.50;94.40;;;;;;5031334;28;20463;-66
2022/10/22 12:58:52;;;;;;;2.60;1.60;;;25.70;95.70;;;;;;5031503;28;20454;-65
2022/10/22 13:01:19;;;;;;;1.50;1.30;;;25.40;98.00;;;;;;5031273;28;20461;-65
2022/10/22 13:03:49;;;;;;;1.47;1.30;;;24.90;98.00;;;;;;5031287;28;20459;-67
2022/10/22 13:06:25;;;;;;;2.30;1.57;;;24.40;98.00;;;;;;5031192;28;20470;-65
2022/10/22 13:09:03;;;;;;;1.93;1.40;;;23.60;98.00;;;;;;5031228;28;20458;-65